Time,TemperatureF,DewpointF,PressureIn,WindDirection,WindDirectionDegrees,WindSpeedMPH,WindSpeedGustMPH,Humidity,HourlyPrecipIn,Conditions,Clouds,dailyrainin,SoftwareType,DateUTC
2013-03-15 00:00:00,23.4,8.7,29.85,North,0,0.0,0.0,53,0.00,,,0.00,WUHU216HW,2013-03-15 04:00:00,
2013-03-15 00:05:00,23.4,8.7,29.85,North,0,0.0,0.0,53,0.00,,,0.00,WUHU216HW,2013-03-15 04:05:00,
2013-03-15 00:30:00,23.2,8.9,29.85,North,0,0.0,0.0,54,0.00,,,0.00,WUHU216HW,2013-03-15 04:30:00,
2013-03-15 00:35:00,23.2,8.9,29.85,North,0,0.0,0.0,54,0.00,,,0.00,WUHU216HW,2013-03-15 04:35:00,
2013-03-15 00:59:00,23.0,9.2,29.85,North,0,0.0,0.0,55,0.00,,,0.00,WUHU216HW,2013-03-15 04:59:00,
2013-03-15 01:00:00,23.0,9.2,29.85,North,0,0.0,0.0,55,0.00,,,0.00,WUHU216HW,2013-03-15 05:00:00,
2013-03-15 01:05:00,23.0,9.2,29.85,North,0,0.0,0.0,55,0.00,,,0.00,WUHU216HW,2013-03-15 05:05:00,
2013-03-15 01:30:00,23.4,9.9,29.85,North,0,0.0,0.0,56,0.00,,,0.00,WUHU216HW,2013-03-15 05:30:00,
2013-03-15 01:35:00,23.4,9.9,29.85,North,0,0.0,0.0,56,0.00,,,0.00,WUHU216HW,2013-03-15 05:35:00,
2013-03-15 01:59:00,23.0,9.5,29.86,North,0,0.0,0.0,56,0.00,,,0.00,WUHU216HW,2013-03-15 05:59:00,
2013-03-15 02:00:00,23.0,9.5,29.86,North,0,0.0,0.0,56,0.00,,,0.00,WUHU216HW,2013-03-15 06:00:00,
2013-03-15 02:05:00,23.0,9.5,29.86,North,0,0.0,0.0,56,0.00,,,0.00,WUHU216HW,2013-03-15 06:05:00,
2013-03-15 02:30:00,23.0,10.0,29.86,North,0,0.0,0.0,57,0.00,,,0.00,WUHU216HW,2013-03-15 06:30:00,
2013-03-15 02:35:00,23.0,10.0,29.86,North,0,0.0,0.0,57,0.00,,,0.00,WUHU216HW,2013-03-15 06:35:00,
2013-03-15 02:59:00,23.0,9.5,29.86,North,0,0.0,0.0,56,0.00,,,0.00,WUHU216HW,2013-03-15 06:59:00,
2013-03-15 03:00:00,23.0,9.5,29.86,North,0,0.0,0.0,56,0.00,,,0.00,WUHU216HW,2013-03-15 07:00:00,
2013-03-15 03:05:00,23.0,9.5,29.86,North,0,0.0,0.0,56,0.00,,,0.00,WUHU216HW,2013-03-15 07:05:00,
2013-03-15 03:30:00,22.7,8.8,29.85,North,0,0.0,0.0,55,0.00,,,0.00,WUHU216HW,2013-03-15 07:30:00,
2013-03-15 03:35:00,22.7,8.8,29.85,North,0,0.0,0.0,55,0.00,,,0.00,WUHU216HW,2013-03-15 07:35:00,
2013-03-15 04:00:00,22.5,8.6,29.85,North,0,0.0,0.0,55,0.00,,,0.00,WUHU216HW,2013-03-15 08:00:00,
2013-03-15 04:05:00,22.5,8.6,29.85,North,0,0.0,0.0,55,0.00,,,0.00,WUHU216HW,2013-03-15 08:05:00,
2013-03-15 04:30:00,22.0,6.9,29.85,North,0,0.0,0.0,52,0.00,,,0.00,WUHU216HW,2013-03-15 08:30:00,
2013-03-15 04:35:00,22.0,6.9,29.85,North,0,0.0,0.0,52,0.00,,,0.00,WUHU216HW,2013-03-15 08:35:00,
2013-03-15 05:00:00,21.4,5.6,29.85,North,0,0.0,0.0,50,0.00,,,0.00,WUHU216HW,2013-03-15 09:00:00,
2013-03-15 05:05:00,21.4,5.6,29.85,North,0,0.0,0.0,50,0.00,,,0.00,WUHU216HW,2013-03-15 09:05:00,
2013-03-15 05:30:00,21.1,5.2,29.87,North,0,0.0,0.0,50,0.00,,,0.00,WUHU216HW,2013-03-15 09:30:00,
2013-03-15 05:35:00,21.1,5.2,29.87,North,0,0.0,0.0,50,0.00,,,0.00,WUHU216HW,2013-03-15 09:35:00,
2013-03-15 06:00:00,20.7,5.3,29.88,North,0,0.0,0.0,51,0.00,,,0.00,WUHU216HW,2013-03-15 10:00:00,
2013-03-15 06:05:00,20.7,5.3,29.88,North,0,0.0,0.0,51,0.00,,,0.00,WUHU216HW,2013-03-15 10:05:00,
2013-03-15 06:30:00,20.7,6.1,29.89,North,0,0.0,0.0,53,0.00,,,0.00,WUHU216HW,2013-03-15 10:30:00,
2013-03-15 06:35:00,20.7,6.1,29.89,North,0,0.0,0.0,53,0.00,,,0.00,WUHU216HW,2013-03-15 10:35:00,
2013-03-15 07:00:00,20.2,5.7,29.89,North,0,0.0,0.0,53,0.00,,,0.00,WUHU216HW,2013-03-15 11:00:00,
2013-03-15 07:05:00,20.2,5.7,29.89,North,0,0.0,0.0,53,0.00,,,0.00,WUHU216HW,2013-03-15 11:05:00,
2013-03-15 07:30:00,20.5,6.8,29.89,North,0,0.0,0.0,55,0.00,,,0.00,WUHU216HW,2013-03-15 11:30:00,
2013-03-15 07:35:00,20.5,6.8,29.89,North,0,0.0,0.0,55,0.00,,,0.00,WUHU216HW,2013-03-15 11:35:00,
2013-03-15 08:00:00,21.2,7.5,29.89,North,0,0.0,0.0,55,0.00,,,0.00,WUHU216HW,2013-03-15 12:00:00,
2013-03-15 08:05:00,21.2,7.5,29.89,North,0,0.0,0.0,55,0.00,,,0.00,WUHU216HW,2013-03-15 12:05:00,
2013-03-15 08:30:00,23.9,10.1,29.89,North,0,0.0,0.0,55,0.00,,,0.00,WUHU216HW,2013-03-15 12:30:00,
2013-03-15 08:35:00,23.9,10.1,29.89,North,0,0.0,0.0,55,0.00,,,0.00,WUHU216HW,2013-03-15 12:35:00,
2013-03-15 08:59:00,24.3,9.2,29.89,North,0,0.0,0.0,52,0.00,,,0.00,WUHU216HW,2013-03-15 12:59:00,
2013-03-15 09:00:00,24.3,9.2,29.89,North,0,0.0,0.0,52,0.00,,,0.00,WUHU216HW,2013-03-15 13:00:00,
2013-03-15 09:05:00,24.3,9.2,29.89,North,0,0.0,0.0,52,0.00,,,0.00,WUHU216HW,2013-03-15 13:05:00,
2013-03-15 09:30:00,25.6,9.5,29.89,North,0,0.0,0.0,50,0.00,,,0.00,WUHU216HW,2013-03-15 13:30:00,
2013-03-15 09:35:00,25.6,9.5,29.89,North,0,0.0,0.0,50,0.00,,,0.00,WUHU216HW,2013-03-15 13:35:00,
2013-03-15 09:59:00,26.8,10.2,29.88,North,0,0.0,0.0,49,0.00,,,0.00,WUHU216HW,2013-03-15 13:59:00,
2013-03-15 10:00:00,26.8,10.2,29.88,North,0,0.0,0.0,49,0.00,,,0.00,WUHU216HW,2013-03-15 14:00:00,
2013-03-15 10:05:00,26.8,10.2,29.88,North,0,0.0,0.0,49,0.00,,,0.00,WUHU216HW,2013-03-15 14:05:00,
2013-03-15 10:30:00,28.8,11.1,29.87,North,0,0.0,0.0,47,0.00,,,0.00,WUHU216HW,2013-03-15 14:30:00,
2013-03-15 10:35:00,28.8,11.1,29.87,North,0,0.0,0.0,47,0.00,,,0.00,WUHU216HW,2013-03-15 14:35:00,
2013-03-15 10:59:00,29.0,10.2,29.86,North,0,0.0,0.0,45,0.00,,,0.00,WUHU216HW,2013-03-15 14:59:00,
2013-03-15 11:00:00,29.0,10.2,29.86,North,0,0.0,0.0,45,0.00,,,0.00,WUHU216HW,2013-03-15 15:00:00,
2013-03-15 11:05:00,29.0,10.2,29.86,North,0,0.0,0.0,45,0.00,,,0.00,WUHU216HW,2013-03-15 15:05:00,
2013-03-15 11:30:00,30.4,11.5,29.84,North,0,0.0,0.0,45,0.00,,,0.00,WUHU216HW,2013-03-15 15:30:00,
2013-03-15 11:35:00,30.4,11.5,29.84,North,0,0.0,0.0,45,0.00,,,0.00,WUHU216HW,2013-03-15 15:35:00,
2013-03-15 11:59:00,33.3,11.6,29.83,North,0,0.0,0.0,40,0.00,,,0.00,WUHU216HW,2013-03-15 15:59:00,
2013-03-15 12:00:00,33.3,11.6,29.83,North,0,0.0,0.0,40,0.00,,,0.00,WUHU216HW,2013-03-15 16:00:00,
2013-03-15 12:05:00,33.3,11.6,29.83,North,0,0.0,0.0,40,0.00,,,0.00,WUHU216HW,2013-03-15 16:05:00,
2013-03-15 12:30:00,36.2,12.9,29.81,North,0,0.0,0.0,38,0.00,,,0.00,WUHU216HW,2013-03-15 16:30:00,
2013-03-15 12:35:00,36.2,12.9,29.81,North,0,0.0,0.0,38,0.00,,,0.00,WUHU216HW,2013-03-15 16:35:00,
2013-03-15 12:59:00,38.0,11.3,29.79,North,0,0.0,0.0,33,0.00,,,0.00,WUHU216HW,2013-03-15 16:59:00,
2013-03-15 13:00:00,38.0,11.3,29.79,North,0,0.0,0.0,33,0.00,,,0.00,WUHU216HW,2013-03-15 17:00:00,
2013-03-15 13:05:00,38.0,11.3,29.79,North,0,0.0,0.0,33,0.00,,,0.00,WUHU216HW,2013-03-15 17:05:00,
2013-03-15 13:30:00,39.1,10.9,29.77,North,0,0.0,0.0,31,0.00,,,0.00,WUHU216HW,2013-03-15 17:30:00,
2013-03-15 13:35:00,39.1,10.9,29.77,North,0,0.0,0.0,31,0.00,,,0.00,WUHU216HW,2013-03-15 17:35:00,
2013-03-15 13:59:00,41.4,11.4,29.74,North,0,0.0,0.0,29,0.00,,,0.00,WUHU216HW,2013-03-15 17:59:00,
2013-03-15 14:00:00,41.4,11.4,29.74,North,0,0.0,0.0,29,0.00,,,0.00,WUHU216HW,2013-03-15 18:00:00,
2013-03-15 14:05:00,41.4,11.4,29.74,North,0,0.0,0.0,29,0.00,,,0.00,WUHU216HW,2013-03-15 18:05:00,
2013-03-15 14:30:00,41.4,11.4,29.72,North,0,0.0,0.0,29,0.00,,,0.00,WUHU216HW,2013-03-15 18:30:00,
2013-03-15 14:35:00,41.4,11.4,29.72,North,0,0.0,0.0,29,0.00,,,0.00,WUHU216HW,2013-03-15 18:35:00,
2013-03-15 14:59:00,42.3,13.1,29.70,North,0,0.0,0.0,30,0.00,,,0.00,WUHU216HW,2013-03-15 18:59:00,
2013-03-15 15:00:00,42.3,13.1,29.70,North,0,0.0,0.0,30,0.00,,,0.00,WUHU216HW,2013-03-15 19:00:00,
2013-03-15 15:05:00,42.3,13.1,29.70,North,0,0.0,0.0,30,0.00,,,0.00,WUHU216HW,2013-03-15 19:05:00,
2013-03-15 15:30:00,42.1,14.2,29.70,North,0,0.0,0.0,32,0.00,,,0.00,WUHU216HW,2013-03-15 19:30:00,
2013-03-15 15:35:00,42.1,14.2,29.70,North,0,0.0,0.0,32,0.00,,,0.00,WUHU216HW,2013-03-15 19:35:00,
2013-03-15 15:59:00,41.9,16.0,29.68,North,0,0.0,0.0,35,0.00,,,0.00,WUHU216HW,2013-03-15 19:59:00,
2013-03-15 16:00:00,41.9,16.0,29.68,North,0,0.0,0.0,35,0.00,,,0.00,WUHU216HW,2013-03-15 20:00:00,
2013-03-15 16:05:00,41.9,16.0,29.68,North,0,0.0,0.0,35,0.00,,,0.00,WUHU216HW,2013-03-15 20:05:00,
2013-03-15 16:30:00,42.1,17.6,29.67,North,0,0.0,0.0,37,0.00,,,0.00,WUHU216HW,2013-03-15 20:30:00,
2013-03-15 16:35:00,42.1,17.6,29.67,North,0,0.0,0.0,37,0.00,,,0.00,WUHU216HW,2013-03-15 20:35:00,
2013-03-15 17:00:00,43.6,18.2,29.65,North,0,0.0,0.0,36,0.00,,,0.00,WUHU216HW,2013-03-15 21:00:00,
2013-03-15 17:05:00,43.6,18.2,29.65,North,0,0.0,0.0,36,0.00,,,0.00,WUHU216HW,2013-03-15 21:05:00,
2013-03-15 17:30:00,42.1,18.2,29.65,North,0,0.0,0.0,38,0.00,,,0.00,WUHU216HW,2013-03-15 21:30:00,
2013-03-15 17:35:00,42.1,18.2,29.65,North,0,0.0,0.0,38,0.00,,,0.00,WUHU216HW,2013-03-15 21:35:00,
2013-03-15 18:00:00,41.0,20.1,29.65,North,0,0.0,0.0,43,0.00,,,0.00,WUHU216HW,2013-03-15 22:00:00,
2013-03-15 18:05:00,41.0,20.1,29.65,North,0,0.0,0.0,43,0.00,,,0.00,WUHU216HW,2013-03-15 22:05:00,
2013-03-15 18:30:00,39.4,22.8,29.66,North,0,0.0,0.0,51,0.00,,,0.00,WUHU216HW,2013-03-15 22:30:00,
2013-03-15 18:35:00,39.4,22.8,29.66,North,0,0.0,0.0,51,0.00,,,0.00,WUHU216HW,2013-03-15 22:35:00,
2013-03-15 19:00:00,38.9,23.6,29.67,North,0,0.0,0.0,54,0.00,,,0.00,WUHU216HW,2013-03-15 23:00:00,
2013-03-15 19:05:00,38.9,23.6,29.67,North,0,0.0,0.0,54,0.00,,,0.00,WUHU216HW,2013-03-15 23:05:00,
2013-03-15 19:30:00,38.3,23.5,29.66,North,0,0.0,0.0,55,0.00,,,0.00,WUHU216HW,2013-03-15 23:30:00,
2013-03-15 19:35:00,38.3,23.5,29.66,North,0,0.0,0.0,55,0.00,,,0.00,WUHU216HW,2013-03-15 23:35:00,
2013-03-15 19:59:00,37.8,23.9,29.67,North,0,0.0,0.0,57,0.00,,,0.00,WUHU216HW,2013-03-15 23:59:00,
2013-03-15 20:00:00,37.8,23.9,29.67,North,0,0.0,0.0,57,0.00,,,0.00,WUHU216HW,2013-03-16 00:00:00,
2013-03-15 20:05:00,37.8,23.9,29.67,North,0,0.0,0.0,57,0.00,,,0.00,WUHU216HW,2013-03-16 00:05:00,
2013-03-15 20:30:00,37.8,25.2,29.67,North,0,0.0,0.0,60,0.00,,,0.00,WUHU216HW,2013-03-16 00:30:00,
2013-03-15 20:35:00,37.8,25.2,29.67,North,0,0.0,0.0,60,0.00,,,0.00,WUHU216HW,2013-03-16 00:35:00,
2013-03-15 20:59:00,37.1,24.9,29.67,North,0,0.0,0.0,61,0.00,,,0.00,WUHU216HW,2013-03-16 00:59:00,
2013-03-15 21:00:00,37.1,24.9,29.67,North,0,0.0,0.0,61,0.00,,,0.00,WUHU216HW,2013-03-16 01:00:00,
2013-03-15 21:05:00,37.1,24.9,29.67,North,0,0.0,0.0,61,0.00,,,0.00,WUHU216HW,2013-03-16 01:05:00,
2013-03-15 21:30:00,36.7,25.3,29.67,North,0,0.0,0.0,63,0.00,,,0.00,WUHU216HW,2013-03-16 01:30:00,
2013-03-15 21:35:00,36.7,25.3,29.67,North,0,0.0,0.0,63,0.00,,,0.00,WUHU216HW,2013-03-16 01:35:00,
2013-03-15 21:59:00,36.4,26.5,29.67,North,0,0.0,0.0,67,0.00,,,0.00,WUHU216HW,2013-03-16 01:59:00,
2013-03-15 22:00:00,36.4,26.5,29.67,North,0,0.0,0.0,67,0.00,,,0.00,WUHU216HW,2013-03-16 02:00:00,
2013-03-15 22:05:00,36.4,26.5,29.67,North,0,0.0,0.0,67,0.00,,,0.00,WUHU216HW,2013-03-16 02:05:00,
2013-03-15 22:30:00,35.6,26.5,29.68,North,0,0.0,0.0,69,0.00,,,0.00,WUHU216HW,2013-03-16 02:30:00,
2013-03-15 22:35:00,35.6,26.5,29.68,North,0,0.0,0.0,69,0.00,,,0.00,WUHU216HW,2013-03-16 02:35:00,
2013-03-15 22:59:00,35.3,26.1,29.67,North,0,0.0,0.0,69,0.00,,,0.00,WUHU216HW,2013-03-16 02:59:00,
2013-03-15 23:00:00,35.3,26.1,29.67,North,0,0.0,0.0,69,0.00,,,0.00,WUHU216HW,2013-03-16 03:00:00,
2013-03-15 23:05:00,35.3,26.1,29.67,North,0,0.0,0.0,69,0.00,,,0.00,WUHU216HW,2013-03-16 03:05:00,
2013-03-15 23:30:00,34.9,26.1,29.67,North,0,0.0,0.0,70,0.00,,,0.00,WUHU216HW,2013-03-16 03:30:00,
2013-03-15 23:35:00,34.9,26.1,29.67,North,0,0.0,0.0,70,0.00,,,0.00,WUHU216HW,2013-03-16 03:35:00,
2013-03-15 23:59:00,34.9,25.4,29.69,North,0,0.0,0.0,68,0.00,,,0.00,WUHU216HW,2013-03-16 03:59:00,